Raton, New Mexico
Current Conditions -  °F | °C
As of 8:53 AM on Friday 19 Dec 2014 (Local Time) from KRTN Reporting Station
Clear Clear  
Wind Chill: 19°   Ceiling: Unl
Heat Index: 27°   Visibility: 10mi
Dew Point: 23°   Wind: 7mph
Humidity: 85%   Direction: 80°E
Pressure: 30.11"   Gusts: NA
Location:  36.91°N, 104.43°W
Report Text: KRTN 191553Z AUTO 08006KT 10SM CLR M03/M05 A3011 RMK AO2 SLP210 T10281050
Loading
Personal Weather Stations






























Interactive Weather Map New forecast layout! Learn more

10-Day Weather Forecast

Advertisements
Track Severe Weather on mobile